• Join FlightAware (Why Join?)
  • Login
  • US Flag 
01:51AM EDT


 

Airport Tracker/Info


-or-


 

Live Flight TrackerFlight Track Log ✈ ASQ5605 ✈ 03-Oct-2013 ✈ KBGR - KDTW

Flight Track Log - Related Links

Times and Time Zones

All times are in EDT time to prevent confusion due to time zone crossing. See the ASQ5605 flight status page for this flight to view local times or setup timezone preferences in your user account.

Time Position Orientation Groundspeed Altitude Reporting Facility
EDT Latitude Longitude Course Direction KTS MPH feet Rate Location/Type
07:07AM 44.8136 -68.9811 257° West 218 251 5,000  Level Boston Center
07:08AM 44.7978 -69.0758 257° West 239 275 8,200 2,700 Climbing Boston Center
07:09AM 44.7817 -69.1703 257° West 245 282 10,400 1,620 Climbing Boston Center
07:10AM 44.7581 -69.2914 255° West 268 308 11,500 1,200 Climbing Boston Center
07:11AM 44.7322 -69.4214 254° West 312 359 12,900 1,560 Climbing Boston Center
07:12AM 44.7114 -69.6771 257° West  Level Estimated
07:12AM 44.7044 -69.5572 254° West 348 400 14,600  Level Boston Center
07:13AM 44.6767 -69.6958 254° West 366 421 16,300 1,620 Climbing Boston Center
07:14AM 44.6508 -69.8372 256° West 376 433 17,900 1,860 Climbing Boston Center
07:15AM 44.6206 -69.9814 254° West 381 438 20,000 1,800 Climbing Boston Center
07:16AM 44.5939 -70.1050 253° West 381 438 21,600 1,500 Climbing Boston Center
07:17AM 44.5656 -70.2461 254° West 381 438 23,100 1,200 Climbing Boston Center
07:18AM 44.5369 -70.3869 254° West 376 433 24,100 960 Climbing Boston Center
07:19AM 44.5081 -70.5306 254° West 389 448 25,100 960 Climbing Boston Center
07:20AM 44.4750 -70.6828 253° West 394 453 26,100 960 Climbing Boston Center
07:21AM 44.4439 -70.8292 253° West 399 459 27,100 960 Climbing Boston Center
07:22AM 44.4125 -70.9842 254° West 404 465 28,100 960 Climbing Boston Center
07:23AM 44.3811 -71.1331 254° West 404 465 29,100 960 Climbing Boston Center
07:24AM 44.3492 -71.2847 254° West 404 465 30,100 960 Climbing Boston Center
07:25AM 44.3133 -71.4392 252° West 404 465 31,100 1,020 Climbing Boston Center
07:26AM 44.2831 -71.5875 254° West 404 465 32,100 960 Climbing Boston Center
07:27AM 44.2489 -71.7358 252° West 404 465 33,100 900 Climbing Boston Center
07:28AM 44.2100 -71.9014 252° West 404 465 34,000 420 Climbing Boston Center
07:29AM 44.1836 -72.0550 257° West 404 465 34,000  Level Boston Center
07:30AM 44.1486 -72.2028 252° West 404 465 34,000  Level Boston Center
07:31AM 44.1092 -72.3592 251° West 414 476 34,000  Level Boston Center
07:32AM 44.0781 -72.4950 252° West 420 483 34,000  Level Boston Center
07:33AM 44.0422 -72.6481 252° West 421 484 34,000  Level Boston Center
07:34AM 44.0067 -72.8067 253° West 421 484 34,000  Level Boston Center
07:35AM 43.9725 -72.9594 253° West 427 491 34,000  Level Boston Center
07:36AM 43.9342 -73.1147 251° West 422 486 34,000  Level Boston Center
07:37AM 43.8978 -73.2697 252° West 422 486 34,000  Level Boston Center
07:38AM 43.8633 -73.4250 253° West 422 486 34,000  Level Boston Center
07:39AM 43.8264 -73.5797 252° West 422 486 34,000  Level Boston Center
07:40AM 43.7831 -73.7486 250° West 422 486 34,000  Level Boston Center
07:41AM 43.7456 -73.9058 252° West 422 486 34,000  Level Boston Center
07:42AM 43.7103 -74.0600 252° West 422 486 34,000  Level Boston Center
07:43AM 43.6706 -74.2139 250° West 422 486 34,000  Level Boston Center
07:44AM 43.6325 -74.3678 251° West 427 491 34,000  Level Boston Center
07:45AM 43.5944 -74.5242 251° West 427 491 34,000  Level Boston Center
07:46AM 43.5558 -74.6806 251° West 427 491 34,000  Level Boston Center
07:47AM 43.5175 -74.8336 251° West 427 491 34,000  Level Boston Center
07:48AM 43.4481 -74.9597 233° Southwest 410 472 34,000  Level Boston Center
07:49AM 43.3603 -75.0589 219° Southwest 402 463 34,000  Level Boston Center
07:50AM 43.2703 -75.1661 221° Southwest 409 471 34,000  Level Boston Center
07:51AM 43.1950 -75.2653 224° Southwest 422 486 34,000  Level Boston Center
07:52AM 43.1333 -75.3936 237° Southwest 422 486 34,000  Level Boston Center
07:53AM 43.1294 -75.5414 268° West 385 443 34,000  Level Boston Center
07:54AM 43.1375 -75.6953 274° West 390 449 34,000  Level Boston Center
07:55AM 43.1456 -75.8525 274° West 402 463 34,000  Level Boston Center
07:56AM 43.1533 -76.0064 274° West 407 468 34,000  Level Boston Center
07:58AM 43.1531 -76.2872 270° West 420 483 34,000  Level Cleveland Center
07:59AM 43.1383 -76.4458 263° West 420 483 34,000  Level Cleveland Center
08:00AM 43.1256 -76.6042 264° West 421 484 34,000  Level Cleveland Center
08:01AM 43.1100 -76.7825 263° West 417 480 34,000  Level Cleveland Center
08:02AM 43.0953 -76.9403 263° West 420 483 34,000  Level Cleveland Center
08:03AM 43.0811 -77.0983 263° West 420 483 34,000  Level Cleveland Center
08:04AM 43.0669 -77.2553 263° West 420 483 34,000  Level Cleveland Center
08:05AM 43.0519 -77.4128 263° West 421 484 34,000  Level Cleveland Center
08:06AM 43.0344 -77.6006 263° West 420 483 34,000  Level Cleveland Center
08:07AM 43.0189 -77.7575 262° West 422 486 34,000  Level Cleveland Center
08:08AM 43.0033 -77.9150 262° West 422 486 34,000  Level Cleveland Center
08:09AM 42.9878 -78.0728 262° West 424 488 34,000  Level Cleveland Center
08:10AM 42.9719 -78.2325 262° West 429 494 34,000  Level Cleveland Center
08:11AM 42.9514 -78.4244 262° West 428 493 34,000  Level Cleveland Center
08:13AM 42.9353 -78.5828 262° West 425 489 34,000  Level Cleveland Center
08:14AM 42.9153 -78.7419 260° West 426 490 34,000  Level Cleveland Center
08:15AM 42.8928 -78.8986 259° West 424 488 34,000  Level Cleveland Center
08:16AM 42.8703 -79.0550 259° West 422 486 34,000  Level Cleveland Center
08:17AM 42.8467 -79.2125 258° West 425 489 34,000 -300 Level Cleveland Center
08:18AM 42.8178 -79.4000 258° West 424 488 33,400 -540 Descending Cleveland Center
08:19AM 42.7947 -79.5569 259° West 424 488 33,000 -360 Descending Cleveland Center
08:20AM 42.7708 -79.7111 258° West 418 481 32,700 -540 Descending Cleveland Center
08:21AM 42.7497 -79.8706 260° West 433 498 32,000 -360 Descending Cleveland Center
08:22AM 42.7419 -80.0289 266° West 432 497 32,000  Level Cleveland Center
08:23AM 42.7347 -80.2175 267° West 426 490 32,000  Level Cleveland Center
08:24AM 42.7267 -80.3803 266° West 428 493 32,000  Level Cleveland Center
08:25AM 42.7197 -80.5414 267° West 426 490 32,000 -720 Level Cleveland Center
08:26AM 42.7133 -80.7044 267° West 429 494 30,600 -1,860 Descending Cleveland Center
08:27AM 42.7067 -80.8683 267° West 430 495 28,200 -2,100 Descending Cleveland Center
08:28AM 42.6911 -81.0211 262° West 410 472 26,300 -1,620 Descending Cleveland Center
08:29AM 42.6742 -81.1678 261° West 394 453 24,900 -1,500 Descending Cleveland Center
08:30AM 42.6544 -81.3378 261° West 390 449 23,300 -1,440 Descending Cleveland Center
08:31AM 42.6372 -81.4842 261° West 389 448 22,000 -1,260 Descending Cleveland Center
08:32AM 42.6208 -81.6244 261° West 379 436 20,700 -1,260 Descending Cleveland Center
08:33AM 42.6028 -81.7642 260° West 374 430 19,400 -1,320 Descending Cleveland Center
08:34AM 42.5867 -81.9072 261° West 365 420 18,000 -1,260 Descending Cleveland Center
08:35AM 42.5697 -82.0381 260° West 355 409 16,900 -1,200 Descending Cleveland Center
08:36AM 42.5542 -82.1667 261° West 349 402 15,600 -1,320 Descending Cleveland Center
08:38AM 42.5344 -82.3433 261° West 343 395 13,900 -1,260 Descending Cleveland Center
08:38AM 42.5319 -82.3514 247° West 342 394 13,900 -900 Level Cleveland Center
08:38AM 42.5225 -82.4192 259° West 340 391 13,200 -1,200 Descending Cleveland Center
08:39AM 42.5172 -82.4714 262° West 323 372 12,700 -960 Descending Cleveland Center
08:40AM 42.4950 -82.5789 254° West 260 299 12,000 -840 Descending Cleveland Center
08:40AM 42.4753 -82.6303 243° Southwest 247 284 11,300 -1,020 Descending Cleveland Center
08:41AM 42.4625 -82.6539 234° Southwest 227 261 11,000 -1,080 Descending Cleveland Center
08:41AM 42.4314 -82.6953 224° Southwest 233 268 10,200 -1,140 Descending Cleveland Center
08:42AM 42.4181 -82.7186 232° Southwest 231 266 9,900 -1,260 Descending Cleveland Center
08:43AM 42.3739 -82.7806 226° Southwest 233 268 8,600 -1,260 Descending Cleveland Center
08:44AM 42.3697 -82.8381 264° West 233 268 7,700 -1,380 Descending Cleveland Center
08:44AM 42.3714 -82.8736 274° West 235 270 7,200 -720 Descending Cleveland Center
08:45AM 42.3753 -82.9239 276° West 232 267 7,000 -240 Descending Cleveland Center
08:45AM 42.3931 -82.9469 316° Northwest 209 241 7,000 -300 Level Cleveland Center
08:46AM 42.4339 -82.9700 337° Northwest 215 247 6,700 -540 Descending Cleveland Center
08:46AM 42.4475 -82.9742 347° North 219 252 6,500 -720 Descending Cleveland Center
08:47AM 42.4783 -83.0153 315° West 215 247 6,000 -540 Descending Cleveland Center
08:47AM 42.4892 -83.0336 309° West 202 232 6,000  Level Cleveland Center
08:48AM 42.4903 -83.1044 271° West 175 201 6,000  Level Cleveland Center
08:49AM 42.4731 -83.1406 237° Southwest 175 201 6,000  Level Cleveland Center
08:49AM 42.4614 -83.1542 221° Southwest 174 200 6,000 -540 Level Cleveland Center
08:50AM 42.4317 -83.1756 208° Southwest 174 200 5,500 -900 Descending Cleveland Center
08:50AM 42.4169 -83.1878 212° Southwest 179 206 5,100 -1,260 Descending Cleveland Center
08:51AM 42.3794 -83.2147 208° Southwest 177 204 4,200 -1,020 Descending Cleveland Center
08:51AM 42.3747 -83.2186 211° Southwest 168 193 4,100 -900 Descending Cleveland Center
08:52AM 42.3322 -83.2522 210° Southwest 175 201 3,200 -960 Descending Cleveland Center
08:53AM 42.2881 -83.2828 207° Southwest 169 194 2,200 -900 Descending Cleveland Center
08:54AM 42.2525 -83.3089 209° Southwest 135 155 1,400 -660 Descending Cleveland Center
08:55AM 42.2228 -83.3306 208° Southwest 144 166 1,000 -480 Descending Cleveland Center
08:57AM 42.2000 -83.3500 246° West  Level FlightAware Approximate
09:04AM 42.2124 -83.3534 246° West  Level Estimated